Kissho — JD3124 — position and weather

sailwx.info

Track history (hours):
 
Tides and Currents Weather Stations Pressure Air Temp Water Temp Dewpoint Dewpoint Depression Visibility Wind Speed Wind Dir Waves Ship Positions

Kissho

Last reported at 2016-Jul-28 07:33 UTC. Time now 2016-Jul-28 22:17 UTC.
Position N 34°42' E 135°21'.

Length 30 m.

Type: Tug. MMSI: 431002115.

Date/timePositionNaut miles runAvg speedWind from/ knotsBaromVisibWave heightAir tempDewpointWater temp
2016-Jul-28 07:33N 34°42' E 135°21'0 0.0
2016-Jul-28 06:33N 34°42' E 135°21'0 0.0
2016-Jul-27 07:33N 34°42' E 135°21'0 0.0
2016-Jul-26 23:09N 34°42' E 135°21'0 0.0
2016-Jul-26 16:27N 34°42' E 135°21'0 0.0
2016-Jul-26 15:27N 34°42' E 135°21'0 0.0
2016-Jul-26 12:27N 34°42' E 135°21'0 0.0
2016-Jul-26 10:21N 34°42' E 135°21'0 0.0
2016-Jul-26 09:33N 34°42' E 135°21'0 0.0
2016-Jul-26 07:27N 34°42' E 135°21'0 0.0
2016-Jul-25 23:33N 34°42' E 135°21'0 0.0
2016-Jul-25 21:33N 34°42' E 135°21'0 0.0
2016-Jul-25 20:21N 34°42' E 135°21'0 0.0
2016-Jul-25 19:33N 34°42' E 135°21'0 0.0
2016-Jul-25 18:33N 34°42' E 135°21'0 0.0
2016-Jul-25 17:33N 34°42' E 135°21'0 0.0
2016-Jul-25 16:33N 34°42' E 135°21'0 0.0
2016-Jul-25 15:33N 34°42' E 135°21'0 0.0
2016-Jul-25 14:33N 34°42' E 135°21'0 0.0
2016-Jul-25 13:33N 34°42' E 135°21'0 0.0
2016-Jul-25 12:33N 34°42' E 135°21'0 0.0
2016-Jul-25 11:33N 34°42' E 135°21'0 0.0
2016-Jul-25 06:15N 34°42' E 135°21'0 0.0
2016-Jul-25 05:27N 34°42' E 135°21'0 0.0
2016-Jul-25 04:33N 34°42' E 135°21'0 0.0
2016-Jul-25 03:15N 34°42' E 135°21'0 0.0
2016-Jul-25 02:33N 34°42' E 135°21'0 0.1
2016-Jul-25 01:29N 34°42' E 135°21'0 0.4
2016-Jul-25 00:33N 34°41' E 135°21'4 4.4
2016-Jul-24 23:33N 34°39' E 135°26'3 3.2
2016-Jul-24 22:33N 34°40' E 135°22'4 3.3
2016-Jul-24 21:21N 34°39' E 135°27'1 0.0
2016-Jul-23 01:25N 34°39' E 135°26'5 5.6
2016-Jul-23 00:33N 34°41' E 135°20'0 0.0
2016-Jul-22 23:19N 34°41' E 135°20'0 0.0
2016-Jul-22 22:25N 34°41' E 135°20'0 0.3
2016-Jul-22 21:32N 34°41' E 135°20'1 1.2
2016-Jul-22 20:31N 34°41' E 135°22'  
Track history (hours):
 
Tides and Currents Weather Stations Pressure Air Temp Water Temp Dewpoint Dewpoint Depression Visibility Wind Speed Wind Dir Waves Ship Positions

Kissho

Last reported at 2016-Jul-28 07:33 UTC. Time now 2016-Jul-28 22:17 UTC.
Position N 34°42' E 135°21'.

Length 30 m.

Type: Tug. MMSI: 431002115.

Date/timePositionNaut miles runAvg speedWind from/ knotsBaromVisibWave heightAir tempDewpointWater temp
2016-Jul-28 07:33N 34°42' E 135°21'0 0.0
2016-Jul-28 06:33N 34°42' E 135°21'0 0.0
2016-Jul-27 07:33N 34°42' E 135°21'0 0.0
2016-Jul-26 23:09N 34°42' E 135°21'0 0.0
2016-Jul-26 16:27N 34°42' E 135°21'0 0.0
2016-Jul-26 15:27N 34°42' E 135°21'0 0.0
2016-Jul-26 12:27N 34°42' E 135°21'0 0.0
2016-Jul-26 10:21N 34°42' E 135°21'0 0.0
2016-Jul-26 09:33N 34°42' E 135°21'0 0.0
2016-Jul-26 07:27N 34°42' E 135°21'0 0.0
2016-Jul-25 23:33N 34°42' E 135°21'0 0.0
2016-Jul-25 21:33N 34°42' E 135°21'0 0.0
2016-Jul-25 20:21N 34°42' E 135°21'0 0.0
2016-Jul-25 19:33N 34°42' E 135°21'0 0.0
2016-Jul-25 18:33N 34°42' E 135°21'0 0.0
2016-Jul-25 17:33N 34°42' E 135°21'0 0.0
2016-Jul-25 16:33N 34°42' E 135°21'0 0.0
2016-Jul-25 15:33N 34°42' E 135°21'0 0.0
2016-Jul-25 14:33N 34°42' E 135°21'0 0.0
2016-Jul-25 13:33N 34°42' E 135°21'0 0.0
2016-Jul-25 12:33N 34°42' E 135°21'0 0.0
2016-Jul-25 11:33N 34°42' E 135°21'0 0.0
2016-Jul-25 06:15N 34°42' E 135°21'0 0.0
2016-Jul-25 05:27N 34°42' E 135°21'0 0.0
2016-Jul-25 04:33N 34°42' E 135°21'0 0.0
2016-Jul-25 03:15N 34°42' E 135°21'0 0.0
2016-Jul-25 02:33N 34°42' E 135°21'0 0.1
2016-Jul-25 01:29N 34°42' E 135°21'0 0.4
2016-Jul-25 00:33N 34°41' E 135°21'4 4.4
2016-Jul-24 23:33N 34°39' E 135°26'3 3.2
2016-Jul-24 22:33N 34°40' E 135°22'4 3.3
2016-Jul-24 21:21N 34°39' E 135°27'1 0.0
2016-Jul-23 01:25N 34°39' E 135°26'5 5.6
2016-Jul-23 00:33N 34°41' E 135°20'0 0.0
2016-Jul-22 23:19N 34°41' E 135°20'0 0.0
2016-Jul-22 22:25N 34°41' E 135°20'0 0.3
2016-Jul-22 21:32N 34°41' E 135°20'1 1.2
2016-Jul-22 20:31N 34°41' E 135°22'  

Dump ship's entire track history